Orbital elements of COSMOS 1275 DEB
| Launched | 3 June 1981 |
| Flight ended | – |
| Launch site | Plesetsk Missile and Space Complex, Russia |
| Owner | Commonwealth of Independent States (former USSR) |
| NORAD ID | 14440 |
| Date fetched |
Epoch osculation |
Inc. [°] |
Ecc. | RA asc node [hr] |
Arg Peri. [°] |
Mean anom [°] |
Mean motion [rev/day] |
Abs. mag |
| Date fetched |
Epoch osculation |
Inc. [°] |
Ecc. | RA asc node [hr] |
Arg Peri. [°] |
Mean anom [°] |
Mean motion [rev/day] |
Abs. mag |
| 2026 May 08 17:57 | 2026 May 04 18:44:27 | 82.9214 | 0.01145 | 15.2058 | 168.3130 | 319.6077 | 13.64463 | – |
| 2026 May 07 17:58 | 2026 May 04 18:44:27 | 82.9214 | 0.01145 | 15.2058 | 168.3130 | 319.6077 | 13.64463 | – |
| 2026 May 06 17:57 | 2026 May 04 18:44:27 | 82.9214 | 0.01145 | 15.2058 | 168.3130 | 319.6077 | 13.64463 | – |
| 2026 May 05 17:57 | 2026 May 04 18:44:27 | 82.9214 | 0.01145 | 15.2058 | 168.3130 | 319.6077 | 13.64463 | – |
| 2026 May 04 17:57 | 2026 Apr 30 06:54:19 | 82.9210 | 0.01142 | 15.4244 | 180.5203 | 319.6077 | 13.64463 | – |
| 2026 May 03 17:57 | 2026 Apr 30 06:54:19 | 82.9210 | 0.01142 | 15.4244 | 180.5203 | 319.6077 | 13.64463 | – |
| 2026 May 02 17:57 | 2026 Apr 30 06:54:19 | 82.9210 | 0.01142 | 15.4244 | 180.5203 | 319.6077 | 13.64463 | – |
| 2026 May 01 17:56 | 2026 Apr 30 06:54:19 | 82.9210 | 0.01142 | 15.4244 | 180.5203 | 319.6077 | 13.64463 | – |
| 2026 Apr 30 17:56 | 2026 Apr 30 06:54:19 | 82.9210 | 0.01142 | 15.4244 | 180.5203 | 319.6077 | 13.64463 | – |
| 2026 Apr 29 17:57 | 2026 Apr 24 08:28:42 | 82.9203 | 0.01137 | 15.7132 | 196.7085 | 319.6077 | 13.64463 | – |
| 2026 Apr 28 17:56 | 2026 Apr 24 08:28:42 | 82.9203 | 0.01137 | 15.7132 | 196.7085 | 319.6077 | 13.64463 | – |
| 2026 Apr 27 17:58 | 2026 Apr 24 08:28:42 | 82.9203 | 0.01137 | 15.7132 | 196.7085 | 319.6077 | 13.64463 | – |
| 2026 Apr 26 17:58 | 2026 Apr 24 08:28:42 | 82.9203 | 0.01137 | 15.7132 | 196.7085 | 319.6077 | 13.64463 | – |
| 2026 Apr 25 17:58 | 2026 Apr 24 08:28:42 | 82.9203 | 0.01137 | 15.7132 | 196.7085 | 319.6077 | 13.64463 | – |
| 2026 Apr 24 17:59 | 2026 Apr 24 08:28:42 | 82.9203 | 0.01137 | 15.7132 | 196.7085 | 319.6077 | 13.64463 | – |
| 2026 Apr 23 17:57 | 2026 Apr 19 08:40:49 | 82.9196 | 0.01134 | 15.9562 | 210.3775 | 319.6077 | 13.64463 | – |
| 2026 Apr 22 17:57 | 2026 Apr 19 08:40:49 | 82.9196 | 0.01134 | 15.9562 | 210.3775 | 319.6077 | 13.64463 | – |
| 2026 Apr 21 17:57 | 2026 Apr 19 08:40:49 | 82.9196 | 0.01134 | 15.9562 | 210.3775 | 319.6077 | 13.64463 | – |
| 2026 Apr 20 17:57 | 2026 Apr 19 08:40:49 | 82.9196 | 0.01134 | 15.9562 | 210.3775 | 319.6077 | 13.64463 | – |
| 2026 Apr 19 17:58 | 2026 Apr 19 08:40:49 | 82.9196 | 0.01134 | 15.9562 | 210.3775 | 319.6077 | 13.64463 | – |
| 2026 Apr 18 17:56 | 2026 Apr 11 08:49:47 | 82.9184 | 0.01128 | 16.3453 | 232.3773 | 319.6077 | 13.64463 | – |
| 2026 Apr 16 17:57 | 2026 Apr 11 08:49:47 | 82.9184 | 0.01128 | 16.3453 | 232.3773 | 319.6077 | 13.64463 | – |
| 2026 Apr 14 17:57 | 2026 Apr 11 08:49:47 | 82.9184 | 0.01128 | 16.3453 | 232.3773 | 319.6077 | 13.64463 | – |
| 2026 Apr 13 17:57 | 2026 Apr 11 08:49:47 | 82.9184 | 0.01128 | 16.3453 | 232.3773 | 319.6077 | 13.64463 | – |
| 2026 Apr 12 17:57 | 2026 Apr 08 08:39:58 | 82.9176 | 0.01127 | 16.4916 | 240.6782 | 319.6077 | 13.64463 | – |
| 2026 Apr 11 17:57 | 2026 Apr 08 08:39:58 | 82.9176 | 0.01127 | 16.4916 | 240.6782 | 319.6077 | 13.64463 | – |